sensor_id;sensor_type;location;lat;lon;timestamp;temperature;humidity
23703;DHT22;12030;50.376;8.762;2022-10-19T00:01:52;13.10;99.90
23703;DHT22;12030;50.376;8.762;2022-10-19T00:04:17;13.10;99.90
23703;DHT22;12030;50.376;8.762;2022-10-19T00:06:43;13.00;99.90
23703;DHT22;12030;50.376;8.762;2022-10-19T00:09:16;12.90;99.90
23703;DHT22;12030;50.376;8.762;2022-10-19T00:11:44;12.80;99.90
23703;DHT22;12030;50.376;8.762;2022-10-19T00:14:13;12.70;99.90
23703;DHT22;12030;50.376;8.762;2022-10-19T00:16:39;12.60;99.90
23703;DHT22;12030;50.376;8.762;2022-10-19T00:19:08;12.60;99.90
23703;DHT22;12030;50.376;8.762;2022-10-19T00:21:35;12.60;99.90
23703;DHT22;12030;50.376;8.762;2022-10-19T00:24:02;12.50;99.90
23703;DHT22;12030;50.376;8.762;2022-10-19T00:26:27;12.50;99.90
23703;DHT22;12030;50.376;8.762;2022-10-19T00:28:54;12.50;99.90
23703;DHT22;12030;50.376;8.762;2022-10-19T00:31:20;12.50;99.90
23703;DHT22;12030;50.376;8.762;2022-10-19T00:33:46;12.40;99.90
23703;DHT22;12030;50.376;8.762;2022-10-19T00:36:17;12.50;99.90
23703;DHT22;12030;50.376;8.762;2022-10-19T00:38:43;12.50;99.90
23703;DHT22;12030;50.376;8.762;2022-10-19T00:41:09;12.50;99.90
23703;DHT22;12030;50.376;8.762;2022-10-19T00:46:23;12.40;99.90
23703;DHT22;12030;50.376;8.762;2022-10-19T00:48:49;12.30;99.90
23703;DHT22;12030;50.376;8.762;2022-10-19T00:51:17;12.30;99.90
23703;DHT22;12030;50.376;8.762;2022-10-19T00:53:42;12.20;99.90
23703;DHT22;12030;50.376;8.762;2022-10-19T00:56:11;12.30;99.90
23703;DHT22;12030;50.376;8.762;2022-10-19T00:58:38;12.20;99.90
23703;DHT22;12030;50.376;8.762;2022-10-19T01:01:06;12.20;99.90
23703;DHT22;12030;50.376;8.762;2022-10-19T01:03:33;12.10;99.90
23703;DHT22;12030;50.376;8.762;2022-10-19T01:05:59;12.10;99.90
23703;DHT22;12030;50.376;8.762;2022-10-19T01:08:26;12.10;99.90
23703;DHT22;12030;50.376;8.762;2022-10-19T01:14:20;12.10;99.90
23703;DHT22;12030;50.376;8.762;2022-10-19T01:20:14;12.00;99.90
23703;DHT22;12030;50.376;8.762;2022-10-19T01:23:20;12.00;99.90
23703;DHT22;12030;50.376;8.762;2022-10-19T01:29:01;11.90;99.90
23703;DHT22;12030;50.376;8.762;2022-10-19T01:32:08;11.80;99.90
23703;DHT22;12030;50.376;8.762;2022-10-19T01:39:42;11.70;99.90
23703;DHT22;12030;50.376;8.762;2022-10-19T01:50:49;11.60;99.90
23703;DHT22;12030;50.376;8.762;2022-10-19T01:53:17;11.50;99.90
23703;DHT22;12030;50.376;8.762;2022-10-19T01:55:44;11.50;99.90
23703;DHT22;12030;50.376;8.762;2022-10-19T01:58:14;11.50;99.90
23703;DHT22;12030;50.376;8.762;2022-10-19T02:00:43;11.50;99.90
23703;DHT22;12030;50.376;8.762;2022-10-19T02:03:11;11.50;99.90
23703;DHT22;12030;50.376;8.762;2022-10-19T02:05:38;11.40;99.90
23703;DHT22;12030;50.376;8.762;2022-10-19T02:08:11;11.40;99.90
23703;DHT22;12030;50.376;8.762;2022-10-19T02:10:41;11.30;99.90
23703;DHT22;12030;50.376;8.762;2022-10-19T02:13:08;11.30;99.90
23703;DHT22;12030;50.376;8.762;2022-10-19T02:15:38;11.30;99.90
23703;DHT22;12030;50.376;8.762;2022-10-19T02:18:04;11.20;99.90
23703;DHT22;12030;50.376;8.762;2022-10-19T02:20:31;11.20;99.90
23703;DHT22;12030;50.376;8.762;2022-10-19T02:22:59;11.20;99.90
23703;DHT22;12030;50.376;8.762;2022-10-19T02:25:25;11.20;99.90
23703;DHT22;12030;50.376;8.762;2022-10-19T02:27:50;11.20;99.90
23703;DHT22;12030;50.376;8.762;2022-10-19T02:30:17;11.20;99.90
23703;DHT22;12030;50.376;8.762;2022-10-19T02:32:44;11.20;99.90
23703;DHT22;12030;50.376;8.762;2022-10-19T02:35:10;11.20;99.90
23703;DHT22;12030;50.376;8.762;2022-10-19T02:37:37;11.20;99.90
23703;DHT22;12030;50.376;8.762;2022-10-19T02:40:04;10.70;99.90
23703;DHT22;12030;50.376;8.762;2022-10-19T02:42:44;11.10;99.90
23703;DHT22;12030;50.376;8.762;2022-10-19T02:45:22;11.00;99.90
23703;DHT22;12030;50.376;8.762;2022-10-19T02:47:54;11.00;99.90
23703;DHT22;12030;50.376;8.762;2022-10-19T02:50:21;10.90;99.90
23703;DHT22;12030;50.376;8.762;2022-10-19T02:52:47;10.90;99.90
23703;DHT22;12030;50.376;8.762;2022-10-19T02:55:12;10.90;99.90
23703;DHT22;12030;50.376;8.762;2022-10-19T02:57:38;11.00;99.90
23703;DHT22;12030;50.376;8.762;2022-10-19T03:00:05;10.70;99.90
23703;DHT22;12030;50.376;8.762;2022-10-19T03:02:31;10.80;99.90
23703;DHT22;12030;50.376;8.762;2022-10-19T03:04:57;10.70;99.90
23703;DHT22;12030;50.376;8.762;2022-10-19T03:07:23;10.70;99.90
23703;DHT22;12030;50.376;8.762;2022-10-19T03:09:48;10.60;99.90
23703;DHT22;12030;50.376;8.762;2022-10-19T03:12:14;10.60;99.90
23703;DHT22;12030;50.376;8.762;2022-10-19T03:14:40;10.60;99.90
23703;DHT22;12030;50.376;8.762;2022-10-19T03:17:06;10.50;99.90
23703;DHT22;12030;50.376;8.762;2022-10-19T03:19:31;10.50;99.90
23703;DHT22;12030;50.376;8.762;2022-10-19T03:21:57;10.40;99.90
23703;DHT22;12030;50.376;8.762;2022-10-19T03:24:22;10.30;99.90
23703;DHT22;12030;50.376;8.762;2022-10-19T03:26:48;10.20;99.90
23703;DHT22;12030;50.376;8.762;2022-10-19T03:29:14;10.20;99.90
23703;DHT22;12030;50.376;8.762;2022-10-19T03:31:39;10.20;99.90
23703;DHT22;12030;50.376;8.762;2022-10-19T03:34:05;10.20;99.90
23703;DHT22;12030;50.376;8.762;2022-10-19T03:36:33;10.20;99.90
23703;DHT22;12030;50.376;8.762;2022-10-19T03:39:02;10.20;99.90
23703;DHT22;12030;50.376;8.762;2022-10-19T03:41:31;10.10;99.90
23703;DHT22;12030;50.376;8.762;2022-10-19T03:43:57;10.10;99.90
23703;DHT22;12030;50.376;8.762;2022-10-19T03:46:23;10.10;99.90
23703;DHT22;12030;50.376;8.762;2022-10-19T03:48:49;10.10;99.90
23703;DHT22;12030;50.376;8.762;2022-10-19T03:51:17;10.10;99.90
23703;DHT22;12030;50.376;8.762;2022-10-19T03:53:43;10.10;99.90
23703;DHT22;12030;50.376;8.762;2022-10-19T03:56:18;10.10;99.90
23703;DHT22;12030;50.376;8.762;2022-10-19T03:58:45;10.20;99.90
23703;DHT22;12030;50.376;8.762;2022-10-19T04:01:14;10.20;99.90
23703;DHT22;12030;50.376;8.762;2022-10-19T04:03:40;10.20;99.90
23703;DHT22;12030;50.376;8.762;2022-10-19T04:06:08;10.20;99.90
23703;DHT22;12030;50.376;8.762;2022-10-19T04:08:34;10.30;99.90
23703;DHT22;12030;50.376;8.762;2022-10-19T04:11:06;10.30;99.90
23703;DHT22;12030;50.376;8.762;2022-10-19T04:13:32;10.30;99.90
23703;DHT22;12030;50.376;8.762;2022-10-19T04:15:58;10.30;99.90
23703;DHT22;12030;50.376;8.762;2022-10-19T04:18:24;10.30;99.90
23703;DHT22;12030;50.376;8.762;2022-10-19T04:21:01;10.30;99.90
23703;DHT22;12030;50.376;8.762;2022-10-19T04:23:29;10.30;99.90
23703;DHT22;12030;50.376;8.762;2022-10-19T04:25:59;10.30;99.90
23703;DHT22;12030;50.376;8.762;2022-10-19T04:28:25;10.30;99.90
23703;DHT22;12030;50.376;8.762;2022-10-19T04:30:51;10.30;99.90
23703;DHT22;12030;50.376;8.762;2022-10-19T04:33:16;10.30;99.90
23703;DHT22;12030;50.376;8.762;2022-10-19T04:35:42;10.30;99.90
23703;DHT22;12030;50.376;8.762;2022-10-19T04:38:07;10.20;99.90
23703;DHT22;12030;50.376;8.762;2022-10-19T04:40:34;10.20;99.90
23703;DHT22;12030;50.376;8.762;2022-10-19T04:43:00;10.20;99.90
23703;DHT22;12030;50.376;8.762;2022-10-19T04:45:26;10.20;99.90
23703;DHT22;12030;50.376;8.762;2022-10-19T04:47:53;10.10;99.90
23703;DHT22;12030;50.376;8.762;2022-10-19T04:50:21;10.10;99.90
23703;DHT22;12030;50.376;8.762;2022-10-19T04:52:46;10.10;99.90
23703;DHT22;12030;50.376;8.762;2022-10-19T04:55:12;10.00;99.90
23703;DHT22;12030;50.376;8.762;2022-10-19T04:57:38;10.00;99.90
23703;DHT22;12030;50.376;8.762;2022-10-19T05:00:04;9.90;99.90
23703;DHT22;12030;50.376;8.762;2022-10-19T05:02:29;10.00;99.90
23703;DHT22;12030;50.376;8.762;2022-10-19T05:04:55;9.90;99.90
23703;DHT22;12030;50.376;8.762;2022-10-19T05:07:20;9.90;99.90
23703;DHT22;12030;50.376;8.762;2022-10-19T05:09:46;9.90;99.90
23703;DHT22;12030;50.376;8.762;2022-10-19T05:12:11;9.90;99.90
23703;DHT22;12030;50.376;8.762;2022-10-19T05:14:37;9.90;99.90
23703;DHT22;12030;50.376;8.762;2022-10-19T05:17:02;9.90;99.90
23703;DHT22;12030;50.376;8.762;2022-10-19T05:19:28;9.90;99.90
23703;DHT22;12030;50.376;8.762;2022-10-19T05:21:53;9.90;99.90
23703;DHT22;12030;50.376;8.762;2022-10-19T05:24:19;9.90;99.90
23703;DHT22;12030;50.376;8.762;2022-10-19T05:26:44;9.80;99.90
23703;DHT22;12030;50.376;8.762;2022-10-19T05:29:11;9.80;99.90
23703;DHT22;12030;50.376;8.762;2022-10-19T05:31:37;9.80;99.90
23703;DHT22;12030;50.376;8.762;2022-10-19T05:34:03;9.70;99.90
23703;DHT22;12030;50.376;8.762;2022-10-19T05:36:31;9.70;99.90
23703;DHT22;12030;50.376;8.762;2022-10-19T05:39:11;9.70;99.90
23703;DHT22;12030;50.376;8.762;2022-10-19T05:41:37;9.70;99.90
23703;DHT22;12030;50.376;8.762;2022-10-19T05:44:03;9.70;99.90
23703;DHT22;12030;50.376;8.762;2022-10-19T05:46:30;9.70;99.90
23703;DHT22;12030;50.376;8.762;2022-10-19T05:48:56;9.60;99.90
23703;DHT22;12030;50.376;8.762;2022-10-19T05:51:24;9.60;99.90
23703;DHT22;12030;50.376;8.762;2022-10-19T05:53:51;9.60;99.90
23703;DHT22;12030;50.376;8.762;2022-10-19T05:56:21;9.60;99.90
23703;DHT22;12030;50.376;8.762;2022-10-19T05:58:48;9.50;99.90
23703;DHT22;12030;50.376;8.762;2022-10-19T06:01:15;9.50;99.90
23703;DHT22;12030;50.376;8.762;2022-10-19T06:03:40;9.50;99.90
23703;DHT22;12030;50.376;8.762;2022-10-19T06:06:07;9.50;99.90
23703;DHT22;12030;50.376;8.762;2022-10-19T06:08:33;9.40;99.90
23703;DHT22;12030;50.376;8.762;2022-10-19T06:11:07;9.40;99.90
23703;DHT22;12030;50.376;8.762;2022-10-19T06:13:33;9.40;99.90
23703;DHT22;12030;50.376;8.762;2022-10-19T06:15:59;9.40;99.90
23703;DHT22;12030;50.376;8.762;2022-10-19T06:18:24;9.50;99.90
23703;DHT22;12030;50.376;8.762;2022-10-19T06:20:51;9.50;99.90
23703;DHT22;12030;50.376;8.762;2022-10-19T06:23:17;9.40;99.90
23703;DHT22;12030;50.376;8.762;2022-10-19T06:25:43;9.50;99.90
23703;DHT22;12030;50.376;8.762;2022-10-19T06:28:09;9.60;99.90
23703;DHT22;12030;50.376;8.762;2022-10-19T06:30:38;9.60;99.90
23703;DHT22;12030;50.376;8.762;2022-10-19T06:33:04;9.60;99.90
23703;DHT22;12030;50.376;8.762;2022-10-19T06:35:30;9.60;99.90
23703;DHT22;12030;50.376;8.762;2022-10-19T06:37:56;9.60;99.90
23703;DHT22;12030;50.376;8.762;2022-10-19T06:40:23;9.60;99.90
23703;DHT22;12030;50.376;8.762;2022-10-19T06:42:49;9.60;99.90
23703;DHT22;12030;50.376;8.762;2022-10-19T06:45:14;9.60;99.90
23703;DHT22;12030;50.376;8.762;2022-10-19T06:47:40;9.60;99.90
23703;DHT22;12030;50.376;8.762;2022-10-19T06:50:06;9.60;99.90
23703;DHT22;12030;50.376;8.762;2022-10-19T06:52:32;9.70;99.90
23703;DHT22;12030;50.376;8.762;2022-10-19T06:54:58;9.60;99.90
23703;DHT22;12030;50.376;8.762;2022-10-19T06:57:24;9.60;99.90
23703;DHT22;12030;50.376;8.762;2022-10-19T06:59:49;9.60;99.90
23703;DHT22;12030;50.376;8.762;2022-10-19T07:02:15;9.60;99.90
23703;DHT22;12030;50.376;8.762;2022-10-19T07:04:41;9.60;99.90
23703;DHT22;12030;50.376;8.762;2022-10-19T07:07:06;9.60;99.90
23703;DHT22;12030;50.376;8.762;2022-10-19T07:09:32;9.70;99.90
23703;DHT22;12030;50.376;8.762;2022-10-19T07:11:58;9.70;99.90
23703;DHT22;12030;50.376;8.762;2022-10-19T07:14:23;9.80;99.90
23703;DHT22;12030;50.376;8.762;2022-10-19T07:16:50;9.90;99.90
23703;DHT22;12030;50.376;8.762;2022-10-19T07:19:15;9.90;99.90
23703;DHT22;12030;50.376;8.762;2022-10-19T07:21:41;9.90;99.90
23703;DHT22;12030;50.376;8.762;2022-10-19T07:24:08;10.00;99.90
23703;DHT22;12030;50.376;8.762;2022-10-19T07:26:34;10.10;99.90
23703;DHT22;12030;50.376;8.762;2022-10-19T07:29:00;10.10;99.90
23703;DHT22;12030;50.376;8.762;2022-10-19T07:31:28;10.20;99.90
23703;DHT22;12030;50.376;8.762;2022-10-19T07:33:59;10.20;99.90
23703;DHT22;12030;50.376;8.762;2022-10-19T07:36:26;10.20;99.90
23703;DHT22;12030;50.376;8.762;2022-10-19T07:38:53;10.30;99.90
23703;DHT22;12030;50.376;8.762;2022-10-19T07:41:20;10.40;99.90
23703;DHT22;12030;50.376;8.762;2022-10-19T07:43:47;10.40;99.90
23703;DHT22;12030;50.376;8.762;2022-10-19T07:46:18;10.40;99.90
23703;DHT22;12030;50.376;8.762;2022-10-19T07:48:44;10.40;99.90
23703;DHT22;12030;50.376;8.762;2022-10-19T07:51:11;10.50;99.90
23703;DHT22;12030;50.376;8.762;2022-10-19T07:53:37;10.50;99.90
23703;DHT22;12030;50.376;8.762;2022-10-19T07:56:08;10.60;99.90
23703;DHT22;12030;50.376;8.762;2022-10-19T07:58:35;10.70;99.90
23703;DHT22;12030;50.376;8.762;2022-10-19T08:01:07;10.60;99.90
23703;DHT22;12030;50.376;8.762;2022-10-19T08:03:34;10.70;99.90
23703;DHT22;12030;50.376;8.762;2022-10-19T08:06:01;10.70;99.90
23703;DHT22;12030;50.376;8.762;2022-10-19T08:08:27;10.80;99.90
23703;DHT22;12030;50.376;8.762;2022-10-19T08:10:53;10.80;99.90
23703;DHT22;12030;50.376;8.762;2022-10-19T08:13:18;10.90;99.90
23703;DHT22;12030;50.376;8.762;2022-10-19T08:15:44;10.90;99.90
23703;DHT22;12030;50.376;8.762;2022-10-19T08:18:09;10.90;99.90
23703;DHT22;12030;50.376;8.762;2022-10-19T08:20:36;11.00;99.90
23703;DHT22;12030;50.376;8.762;2022-10-19T08:23:02;11.00;99.90
23703;DHT22;12030;50.376;8.762;2022-10-19T08:25:27;11.10;99.90
23703;DHT22;12030;50.376;8.762;2022-10-19T08:27:53;11.10;99.90
23703;DHT22;12030;50.376;8.762;2022-10-19T08:30:19;11.10;99.90
23703;DHT22;12030;50.376;8.762;2022-10-19T08:32:44;11.30;99.90
23703;DHT22;12030;50.376;8.762;2022-10-19T08:35:10;11.30;99.90
23703;DHT22;12030;50.376;8.762;2022-10-19T08:37:35;11.30;99.90
23703;DHT22;12030;50.376;8.762;2022-10-19T08:40:01;11.40;99.90
23703;DHT22;12030;50.376;8.762;2022-10-19T08:45:41;11.50;99.90
23703;DHT22;12030;50.376;8.762;2022-10-19T08:48:33;11.60;99.90
23703;DHT22;12030;50.376;8.762;2022-10-19T08:51:01;11.70;99.90
23703;DHT22;12030;50.376;8.762;2022-10-19T08:53:51;11.70;99.90
23703;DHT22;12030;50.376;8.762;2022-10-19T08:56:39;11.80;99.90
23703;DHT22;12030;50.376;8.762;2022-10-19T08:59:35;11.90;99.90
23703;DHT22;12030;50.376;8.762;2022-10-19T09:02:39;11.90;99.90
23703;DHT22;12030;50.376;8.762;2022-10-19T09:07:53;12.10;99.90
23703;DHT22;12030;50.376;8.762;2022-10-19T09:10:32;12.10;99.90
23703;DHT22;12030;50.376;8.762;2022-10-19T09:16:03;12.30;99.90
23703;DHT22;12030;50.376;8.762;2022-10-19T09:18:32;12.40;99.90
23703;DHT22;12030;50.376;8.762;2022-10-19T09:21:13;12.50;99.90
23703;DHT22;12030;50.376;8.762;2022-10-19T09:24:04;12.50;99.90
23703;DHT22;12030;50.376;8.762;2022-10-19T09:26:34;12.60;99.90
23703;DHT22;12030;50.376;8.762;2022-10-19T09:29:05;12.60;99.90
23703;DHT22;12030;50.376;8.762;2022-10-19T09:31:35;12.60;99.90
23703;DHT22;12030;50.376;8.762;2022-10-19T09:34:06;12.60;99.90
23703;DHT22;12030;50.376;8.762;2022-10-19T09:36:44;12.80;99.90
23703;DHT22;12030;50.376;8.762;2022-10-19T09:39:12;12.90;99.90
23703;DHT22;12030;50.376;8.762;2022-10-19T09:41:51;12.90;99.90
23703;DHT22;12030;50.376;8.762;2022-10-19T09:44:19;13.00;99.90
23703;DHT22;12030;50.376;8.762;2022-10-19T09:47:25;13.00;99.90
23703;DHT22;12030;50.376;8.762;2022-10-19T09:50:18;13.00;99.90
23703;DHT22;12030;50.376;8.762;2022-10-19T09:52:45;13.10;99.90
23703;DHT22;12030;50.376;8.762;2022-10-19T09:55:37;13.10;99.90
23703;DHT22;12030;50.376;8.762;2022-10-19T09:58:05;13.20;99.90
23703;DHT22;12030;50.376;8.762;2022-10-19T10:00:37;13.30;99.90
23703;DHT22;12030;50.376;8.762;2022-10-19T10:03:04;13.30;99.90
23703;DHT22;12030;50.376;8.762;2022-10-19T10:05:31;13.30;99.90
23703;DHT22;12030;50.376;8.762;2022-10-19T10:07:57;13.30;99.90
23703;DHT22;12030;50.376;8.762;2022-10-19T10:10:27;13.40;99.90
23703;DHT22;12030;50.376;8.762;2022-10-19T10:12:53;13.40;99.90
23703;DHT22;12030;50.376;8.762;2022-10-19T10:15:23;13.50;99.90
23703;DHT22;12030;50.376;8.762;2022-10-19T10:17:50;13.50;99.90
23703;DHT22;12030;50.376;8.762;2022-10-19T10:20:26;13.60;99.90
23703;DHT22;12030;50.376;8.762;2022-10-19T10:23:03;13.60;99.90
23703;DHT22;12030;50.376;8.762;2022-10-19T10:25:31;13.70;99.90
23703;DHT22;12030;50.376;8.762;2022-10-19T10:28:19;13.70;99.90
23703;DHT22;12030;50.376;8.762;2022-10-19T10:30:46;13.80;99.90
23703;DHT22;12030;50.376;8.762;2022-10-19T10:33:16;13.80;99.90
23703;DHT22;12030;50.376;8.762;2022-10-19T10:35:49;13.90;99.90
23703;DHT22;12030;50.376;8.762;2022-10-19T10:38:22;13.90;99.90
23703;DHT22;12030;50.376;8.762;2022-10-19T10:40:51;13.90;99.90
23703;DHT22;12030;50.376;8.762;2022-10-19T10:43:20;13.80;99.90
23703;DHT22;12030;50.376;8.762;2022-10-19T10:45:50;13.90;99.90
23703;DHT22;12030;50.376;8.762;2022-10-19T10:48:37;14.00;99.90
23703;DHT22;12030;50.376;8.762;2022-10-19T10:51:18;14.10;99.90
23703;DHT22;12030;50.376;8.762;2022-10-19T10:53:45;14.10;99.90
23703;DHT22;12030;50.376;8.762;2022-10-19T10:56:25;14.20;99.90
23703;DHT22;12030;50.376;8.762;2022-10-19T10:59:04;14.20;99.90
23703;DHT22;12030;50.376;8.762;2022-10-19T11:01:40;14.30;99.90
23703;DHT22;12030;50.376;8.762;2022-10-19T11:04:18;14.30;99.90
23703;DHT22;12030;50.376;8.762;2022-10-19T11:06:56;14.40;99.90
23703;DHT22;12030;50.376;8.762;2022-10-19T11:09:33;14.40;99.90
23703;DHT22;12030;50.376;8.762;2022-10-19T11:12:03;14.50;99.90
23703;DHT22;12030;50.376;8.762;2022-10-19T11:14:37;14.60;99.90
23703;DHT22;12030;50.376;8.762;2022-10-19T11:17:18;14.70;99.90
23703;DHT22;12030;50.376;8.762;2022-10-19T11:19:45;14.70;99.90
23703;DHT22;12030;50.376;8.762;2022-10-19T11:26:02;14.90;99.90
23703;DHT22;12030;50.376;8.762;2022-10-19T11:28:15;14.90;99.90
23703;DHT22;12030;50.376;8.762;2022-10-19T11:31:23;15.00;99.90
23703;DHT22;12030;50.376;8.762;2022-10-19T11:34:01;14.90;99.90
23703;DHT22;12030;50.376;8.762;2022-10-19T11:55:38;15.50;99.90
23703;DHT22;12030;50.376;8.762;2022-10-19T12:04:12;15.70;99.90
23703;DHT22;12030;50.376;8.762;2022-10-19T12:07:00;15.70;99.90
23703;DHT22;12030;50.376;8.762;2022-10-19T12:14:29;16.00;99.90
23703;DHT22;12030;50.376;8.762;2022-10-19T12:16:59;15.90;99.90
23703;DHT22;12030;50.376;8.762;2022-10-19T12:19:35;16.00;99.90
23703;DHT22;12030;50.376;8.762;2022-10-19T12:22:04;16.00;99.90
23703;DHT22;12030;50.376;8.762;2022-10-19T12:24:32;16.10;99.90
23703;DHT22;12030;50.376;8.762;2022-10-19T12:26:59;16.10;99.90
23703;DHT22;12030;50.376;8.762;2022-10-19T12:29:28;16.20;99.90
23703;DHT22;12030;50.376;8.762;2022-10-19T12:31:57;16.30;99.90
23703;DHT22;12030;50.376;8.762;2022-10-19T12:34:44;16.30;99.90
23703;DHT22;12030;50.376;8.762;2022-10-19T12:37:31;16.30;99.90
23703;DHT22;12030;50.376;8.762;2022-10-19T12:45:28;16.30;99.90
23703;DHT22;12030;50.376;8.762;2022-10-19T12:54:05;16.40;99.90
23703;DHT22;12030;50.376;8.762;2022-10-19T12:56:22;16.30;99.90
23703;DHT22;12030;50.376;8.762;2022-10-19T12:58:58;16.40;99.90
23703;DHT22;12030;50.376;8.762;2022-10-19T13:04:13;16.50;99.90
23703;DHT22;12030;50.376;8.762;2022-10-19T13:06:44;16.60;99.90
23703;DHT22;12030;50.376;8.762;2022-10-19T13:09:35;16.70;99.90
23703;DHT22;12030;50.376;8.762;2022-10-19T13:14:48;16.70;99.90
23703;DHT22;12030;50.376;8.762;2022-10-19T13:22:50;16.80;99.90
23703;DHT22;12030;50.376;8.762;2022-10-19T13:27:49;16.90;99.90
23703;DHT22;12030;50.376;8.762;2022-10-19T13:38:33;17.00;99.90
23703;DHT22;12030;50.376;8.762;2022-10-19T13:41:21;17.00;99.90
23703;DHT22;12030;50.376;8.762;2022-10-19T13:43:56;17.00;99.90
23703;DHT22;12030;50.376;8.762;2022-10-19T13:52:04;17.10;99.90
23703;DHT22;12030;50.376;8.762;2022-10-19T14:00:15;17.00;99.90
23703;DHT22;12030;50.376;8.762;2022-10-19T14:11:42;16.90;99.90
23703;DHT22;12030;50.376;8.762;2022-10-19T14:16:34;16.80;99.90
23703;DHT22;12030;50.376;8.762;2022-10-19T14:18:59;16.70;99.90
23703;DHT22;12030;50.376;8.762;2022-10-19T14:21:30;16.60;99.90
23703;DHT22;12030;50.376;8.762;2022-10-19T14:23:57;16.60;99.90
23703;DHT22;12030;50.376;8.762;2022-10-19T14:26:25;16.60;99.90
23703;DHT22;12030;50.376;8.762;2022-10-19T14:28:55;16.50;99.90
23703;DHT22;12030;50.376;8.762;2022-10-19T14:31:30;16.50;99.90
23703;DHT22;12030;50.376;8.762;2022-10-19T14:33:59;16.40;99.90
23703;DHT22;12030;50.376;8.762;2022-10-19T14:36:31;16.30;99.90
23703;DHT22;12030;50.376;8.762;2022-10-19T14:38:58;16.30;99.90
23703;DHT22;12030;50.376;8.762;2022-10-19T14:43:54;16.30;99.90
23703;DHT22;12030;50.376;8.762;2022-10-19T14:46:20;16.20;99.90
23703;DHT22;12030;50.376;8.762;2022-10-19T14:48:47;16.10;99.90
23703;DHT22;12030;50.376;8.762;2022-10-19T14:51:19;16.00;99.90
23703;DHT22;12030;50.376;8.762;2022-10-19T14:54:06;16.00;99.90
23703;DHT22;12030;50.376;8.762;2022-10-19T14:56:42;15.90;99.90
23703;DHT22;12030;50.376;8.762;2022-10-19T15:02:45;15.90;99.90
23703;DHT22;12030;50.376;8.762;2022-10-19T15:04:52;15.80;99.90
23703;DHT22;12030;50.376;8.762;2022-10-19T15:07:40;15.80;99.90
23703;DHT22;12030;50.376;8.762;2022-10-19T15:10:23;15.80;99.90
23703;DHT22;12030;50.376;8.762;2022-10-19T15:12:51;15.80;99.90
23703;DHT22;12030;50.376;8.762;2022-10-19T15:15:26;15.80;99.90
23703;DHT22;12030;50.376;8.762;2022-10-19T15:18:03;15.80;99.90
23703;DHT22;12030;50.376;8.762;2022-10-19T15:20:31;15.80;99.90
23703;DHT22;12030;50.376;8.762;2022-10-19T15:23:00;15.70;99.90
23703;DHT22;12030;50.376;8.762;2022-10-19T15:25:32;15.60;99.90
23703;DHT22;12030;50.376;8.762;2022-10-19T15:28:19;15.60;99.90
23703;DHT22;12030;50.376;8.762;2022-10-19T15:30:57;15.60;99.90
23703;DHT22;12030;50.376;8.762;2022-10-19T15:33:23;15.50;99.90
23703;DHT22;12030;50.376;8.762;2022-10-19T15:35:49;15.50;99.90
23703;DHT22;12030;50.376;8.762;2022-10-19T15:38:24;15.40;99.90
23703;DHT22;12030;50.376;8.762;2022-10-19T15:40:56;15.40;99.90
23703;DHT22;12030;50.376;8.762;2022-10-19T15:43:52;15.30;99.90
23703;DHT22;12030;50.376;8.762;2022-10-19T15:46:25;15.20;99.90
23703;DHT22;12030;50.376;8.762;2022-10-19T15:48:57;15.20;99.90
23703;DHT22;12030;50.376;8.762;2022-10-19T15:51:30;15.00;99.90
23703;DHT22;12030;50.376;8.762;2022-10-19T15:54:01;15.00;99.90
23703;DHT22;12030;50.376;8.762;2022-10-19T15:56:29;14.90;99.90
23703;DHT22;12030;50.376;8.762;2022-10-19T15:58:57;14.90;99.90
23703;DHT22;12030;50.376;8.762;2022-10-19T16:01:26;14.80;99.90
23703;DHT22;12030;50.376;8.762;2022-10-19T16:03:53;14.80;99.90
23703;DHT22;12030;50.376;8.762;2022-10-19T16:06:20;14.80;99.90
23703;DHT22;12030;50.376;8.762;2022-10-19T16:08:46;14.80;99.90
23703;DHT22;12030;50.376;8.762;2022-10-19T16:11:14;14.70;99.90
23703;DHT22;12030;50.376;8.762;2022-10-19T16:13:39;14.70;99.90
23703;DHT22;12030;50.376;8.762;2022-10-19T16:16:07;14.70;99.90
23703;DHT22;12030;50.376;8.762;2022-10-19T16:18:33;14.60;99.90
23703;DHT22;12030;50.376;8.762;2022-10-19T16:20:59;14.60;99.90
23703;DHT22;12030;50.376;8.762;2022-10-19T16:23:25;14.50;99.90
23703;DHT22;12030;50.376;8.762;2022-10-19T16:25:52;14.50;99.90
23703;DHT22;12030;50.376;8.762;2022-10-19T16:28:18;14.40;99.90
23703;DHT22;12030;50.376;8.762;2022-10-19T16:30:44;14.40;99.90
23703;DHT22;12030;50.376;8.762;2022-10-19T16:33:10;14.30;99.90
23703;DHT22;12030;50.376;8.762;2022-10-19T16:35:38;14.30;99.90
23703;DHT22;12030;50.376;8.762;2022-10-19T16:38:04;14.30;99.90
23703;DHT22;12030;50.376;8.762;2022-10-19T16:40:29;14.30;99.90
23703;DHT22;12030;50.376;8.762;2022-10-19T16:42:55;14.30;99.90
23703;DHT22;12030;50.376;8.762;2022-10-19T16:45:23;14.20;99.90
23703;DHT22;12030;50.376;8.762;2022-10-19T16:47:49;14.30;99.90
23703;DHT22;12030;50.376;8.762;2022-10-19T16:50:15;14.20;99.90
23703;DHT22;12030;50.376;8.762;2022-10-19T16:52:40;14.30;99.90
23703;DHT22;12030;50.376;8.762;2022-10-19T16:55:06;14.30;99.90
23703;DHT22;12030;50.376;8.762;2022-10-19T16:57:32;14.30;99.90
23703;DHT22;12030;50.376;8.762;2022-10-19T16:59:57;14.20;99.90
23703;DHT22;12030;50.376;8.762;2022-10-19T17:02:23;14.20;99.90
23703;DHT22;12030;50.376;8.762;2022-10-19T17:04:49;14.20;99.90
23703;DHT22;12030;50.376;8.762;2022-10-19T17:07:14;14.10;99.90
23703;DHT22;12030;50.376;8.762;2022-10-19T17:09:40;14.10;99.90
23703;DHT22;12030;50.376;8.762;2022-10-19T17:12:06;14.00;99.90
23703;DHT22;12030;50.376;8.762;2022-10-19T17:14:32;14.00;99.90
23703;DHT22;12030;50.376;8.762;2022-10-19T17:16:58;13.90;99.90
23703;DHT22;12030;50.376;8.762;2022-10-19T17:19:23;13.90;99.90
23703;DHT22;12030;50.376;8.762;2022-10-19T17:21:49;13.70;99.90
23703;DHT22;12030;50.376;8.762;2022-10-19T17:24:16;13.70;99.90
23703;DHT22;12030;50.376;8.762;2022-10-19T17:26:43;13.60;99.90
23703;DHT22;12030;50.376;8.762;2022-10-19T17:29:12;13.50;99.90
23703;DHT22;12030;50.376;8.762;2022-10-19T17:31:38;13.40;99.90
23703;DHT22;12030;50.376;8.762;2022-10-19T17:34:04;13.30;99.90
23703;DHT22;12030;50.376;8.762;2022-10-19T17:36:33;13.30;99.90
23703;DHT22;12030;50.376;8.762;2022-10-19T17:39:08;13.20;99.90
23703;DHT22;12030;50.376;8.762;2022-10-19T17:41:34;13.20;99.90
23703;DHT22;12030;50.376;8.762;2022-10-19T17:44:02;13.10;99.90
23703;DHT22;12030;50.376;8.762;2022-10-19T17:46:30;13.10;99.90
23703;DHT22;12030;50.376;8.762;2022-10-19T17:48:57;13.00;99.90
23703;DHT22;12030;50.376;8.762;2022-10-19T17:51:24;13.10;99.90
23703;DHT22;12030;50.376;8.762;2022-10-19T17:53:59;13.00;99.90
23703;DHT22;12030;50.376;8.762;2022-10-19T17:56:25;13.00;99.90
23703;DHT22;12030;50.376;8.762;2022-10-19T17:58:52;13.00;99.90